Dendron, Virginia
Current Conditions -  °F | °C
As of 8:54 PM on Friday 21 Nov 2014 (Local Time) from KAKQ Reporting Station
Clear Clear  
Wind Chill: 27°   Ceiling: Unl
Heat Index: 27°   Visibility: 10mi
Dew Point: 17°   Wind: 3mph
Humidity: 66%   Direction: 350°N
Pressure: 30.56"   Gusts: NA
Location:  37.05°N, 76.94°W
Report Text: KAKQ 220154Z AUTO 35003KT 10SM CLR M03/M08 A3056 RMK AO2 SLP350 T10281083 TSNO $
Loading
Personal Weather Stations






























Interactive Weather Map New forecast layout! Learn more

10-Day Weather Forecast

Advertisements
Track Severe Weather on mobile